createdAt,value
2023-02-26T00:01:18.608Z,1.27
2023-02-26T00:03:48.720Z,1.30
2023-02-26T00:06:15.233Z,1.15
2023-02-26T00:08:41.720Z,1.42
2023-02-26T00:11:08.885Z,1.33
2023-02-26T00:13:39.884Z,1.10
2023-02-26T00:16:13.640Z,1.38
2023-02-26T00:18:40.680Z,1.10
2023-02-26T00:21:07.478Z,1.23
2023-02-26T00:23:34.166Z,1.25
2023-02-26T00:26:00.663Z,1.15
2023-02-26T00:28:27.378Z,0.90
2023-02-26T00:30:54.171Z,0.93
2023-02-26T00:33:20.877Z,1.38
2023-02-26T00:35:47.428Z,0.90
2023-02-26T00:38:16.768Z,0.70
2023-02-26T00:40:44.234Z,1.10
2023-02-26T00:43:22.817Z,0.90
2023-02-26T00:45:55.618Z,2.03
2023-02-26T00:48:22.144Z,1.10
2023-02-26T00:51:08.875Z,1.00
2023-02-26T00:53:39.393Z,1.10
2023-02-26T00:56:05.909Z,0.82
2023-02-26T00:58:32.465Z,0.98
2023-02-26T01:00:59.913Z,0.93
2023-02-26T01:03:26.591Z,1.20
2023-02-26T01:05:53.183Z,0.95
2023-02-26T01:08:34.629Z,0.80
2023-02-26T01:11:01.310Z,0.73
2023-02-26T01:13:27.902Z,1.52
2023-02-26T01:15:59.119Z,0.80
2023-02-26T01:18:31.790Z,1.05
2023-02-26T01:21:00.725Z,0.75
2023-02-26T01:23:31.784Z,0.70
2023-02-26T01:25:59.555Z,0.70
2023-02-26T01:28:26.780Z,1.00
2023-02-26T01:30:54.609Z,0.77
2023-02-26T01:33:25.760Z,0.90
2023-02-26T01:36:04.524Z,0.80
2023-02-26T01:38:35.020Z,0.77
2023-02-26T01:41:06.680Z,0.95
2023-02-26T01:43:45.390Z,0.80
2023-02-26T01:46:35.144Z,0.95
2023-02-26T01:49:02.151Z,0.80
2023-02-26T01:51:57.750Z,1.33
2023-02-26T01:54:34.460Z,0.80
2023-02-26T01:57:15.619Z,0.90
2023-02-26T01:59:47.131Z,0.80
2023-02-26T02:02:15.279Z,0.77
2023-02-26T02:04:42.664Z,1.50
2023-02-26T02:07:09.397Z,0.90
2023-02-26T02:09:35.964Z,0.73
2023-02-26T02:12:26.864Z,0.93
2023-02-26T02:14:53.413Z,0.80
2023-02-26T02:17:25.925Z,1.08
2023-02-26T02:20:11.256Z,0.85
2023-02-26T02:22:46.925Z,0.63
2023-02-26T02:25:31.894Z,0.75
2023-02-26T02:28:14.396Z,0.90
2023-02-26T02:30:58.389Z,0.85
2023-02-26T02:33:28.781Z,0.75
2023-02-26T02:36:01.600Z,0.70
2023-02-26T02:38:36.790Z,0.70
2023-02-26T02:41:07.459Z,0.77
2023-02-26T02:43:34.960Z,0.63
2023-02-26T02:46:06.154Z,0.70
2023-02-26T02:48:34.926Z,1.00
2023-02-26T02:51:07.497Z,1.10
2023-02-26T02:53:39.580Z,0.80
2023-02-26T02:56:11.644Z,0.70
2023-02-26T02:58:41.863Z,0.80
2023-02-26T03:01:09.922Z,0.70
2023-02-26T03:03:55.185Z,0.80
2023-02-26T03:06:21.868Z,0.60
2023-02-26T03:08:49.490Z,0.80
2023-02-26T03:11:16.055Z,0.93
2023-02-26T03:13:42.758Z,1.00
2023-02-26T03:16:21.519Z,0.90
2023-02-26T03:18:55.535Z,0.73
2023-02-26T03:21:28.189Z,0.98
2023-02-26T03:23:59.362Z,0.60
2023-02-26T03:26:40.280Z,0.65
2023-02-26T03:29:14.571Z,0.93
2023-02-26T03:31:56.371Z,1.20
2023-02-26T03:34:23.892Z,1.15
2023-02-26T03:36:50.315Z,0.70
2023-02-26T03:39:20.289Z,0.60
2023-02-26T03:42:02.237Z,0.60
2023-02-26T03:44:32.071Z,0.60
2023-02-26T03:47:00.707Z,0.75
2023-02-26T03:49:45.238Z,1.33
2023-02-26T03:52:12.354Z,1.00
2023-02-26T03:54:52.008Z,0.60
2023-02-26T03:57:18.609Z,0.80
2023-02-26T03:59:45.403Z,0.63
2023-02-26T04:02:13.977Z,0.68
2023-02-26T04:05:01.890Z,0.80
2023-02-26T04:07:28.812Z,0.82
2023-02-26T04:09:56.309Z,0.60
2023-02-26T04:12:24.056Z,0.60
2023-02-26T04:14:50.868Z,3.03
2023-02-26T04:17:18.768Z,0.50
2023-02-26T04:19:45.794Z,0.63
2023-02-26T04:22:12.587Z,0.52
2023-02-26T04:24:39.115Z,0.47
2023-02-26T04:27:05.597Z,0.50
2023-02-26T04:29:32.274Z,0.85
2023-02-26T04:31:58.947Z,0.43
2023-02-26T04:34:25.509Z,0.95
2023-02-26T04:36:52.284Z,0.60
2023-02-26T04:39:18.826Z,0.70
2023-02-26T04:41:45.366Z,0.95
2023-02-26T04:44:12.014Z,0.60
2023-02-26T04:46:38.563Z,0.70
2023-02-26T04:49:05.129Z,0.50
2023-02-26T04:51:31.736Z,0.73
2023-02-26T04:53:58.203Z,0.60
2023-02-26T04:56:25.094Z,0.75
2023-02-26T04:58:51.776Z,0.75
2023-02-26T05:01:18.292Z,0.50
2023-02-26T05:03:44.792Z,0.60
2023-02-26T05:06:11.324Z,0.60
2023-02-26T05:08:42.242Z,0.60
2023-02-26T05:11:11.606Z,0.70
2023-02-26T05:13:38.517Z,0.70
2023-02-26T05:16:05.721Z,1.33
2023-02-26T05:18:32.669Z,0.80
2023-02-26T05:21:00.506Z,0.90
2023-02-26T05:23:27.271Z,0.60
2023-02-26T05:25:55.405Z,0.50
2023-02-26T05:28:21.963Z,0.88
2023-02-26T05:30:48.450Z,0.60
2023-02-26T05:33:15.014Z,0.80
2023-02-26T05:35:41.564Z,0.45
2023-02-26T05:38:08.392Z,0.70
2023-02-26T05:40:34.915Z,0.47
2023-02-26T05:43:01.317Z,0.50
2023-02-26T05:45:27.759Z,0.65
2023-02-26T05:47:54.226Z,0.50
2023-02-26T05:50:20.675Z,0.70
2023-02-26T05:52:47.197Z,0.47
2023-02-26T05:55:13.747Z,0.50
2023-02-26T05:57:40.213Z,1.83
2023-02-26T06:00:07.972Z,0.60
2023-02-26T06:02:34.510Z,0.70
2023-02-26T06:05:00.915Z,0.52
2023-02-26T06:07:27.324Z,0.85
2023-02-26T06:09:53.802Z,0.77
2023-02-26T06:12:20.295Z,0.50
2023-02-26T06:14:46.716Z,0.50
2023-02-26T06:17:13.172Z,0.63
2023-02-26T06:19:39.594Z,0.50
2023-02-26T06:22:06.096Z,0.65
2023-02-26T06:24:32.952Z,0.60
2023-02-26T06:26:59.493Z,0.50
2023-02-26T06:29:25.901Z,0.80
2023-02-26T06:31:52.548Z,1.20
2023-02-26T06:34:19.017Z,0.50
2023-02-26T06:36:45.570Z,0.70
2023-02-26T06:39:12.875Z,0.85
2023-02-26T06:41:39.691Z,0.50
2023-02-26T06:44:06.087Z,0.80
2023-02-26T06:46:32.603Z,0.63
2023-02-26T06:48:59.243Z,1.10
2023-02-26T06:51:25.883Z,0.77
2023-02-26T06:53:52.393Z,0.88
2023-02-26T06:56:18.885Z,0.50
2023-02-26T06:58:45.412Z,0.68
2023-02-26T07:01:11.995Z,0.70
2023-02-26T07:03:38.546Z,0.57
2023-02-26T07:06:25.927Z,0.68
2023-02-26T07:08:53.921Z,0.52
2023-02-26T07:11:20.461Z,0.70
2023-02-26T07:13:47.024Z,0.80
2023-02-26T07:16:13.857Z,0.60
2023-02-26T07:18:40.331Z,0.60
2023-02-26T07:21:07.637Z,1.38
2023-02-26T07:23:34.212Z,0.90
2023-02-26T07:26:00.690Z,0.82
2023-02-26T07:28:27.278Z,0.80
2023-02-26T07:30:57.453Z,0.45
2023-02-26T07:33:25.085Z,0.88
2023-02-26T07:35:51.521Z,0.70
2023-02-26T07:38:19.678Z,1.70
2023-02-26T07:40:46.824Z,0.50
2023-02-26T07:43:13.434Z,0.55
2023-02-26T07:45:39.984Z,2.15
2023-02-26T07:48:06.474Z,0.77
2023-02-26T07:50:33.687Z,0.85
2023-02-26T07:53:00.654Z,0.88
2023-02-26T07:55:27.855Z,0.60
2023-02-26T07:57:54.418Z,0.95
2023-02-26T08:00:21.198Z,0.57
2023-02-26T08:02:47.920Z,0.80
2023-02-26T08:05:14.509Z,0.77
2023-02-26T08:07:41.057Z,0.85
2023-02-26T08:10:09.021Z,0.60
2023-02-26T08:12:36.857Z,0.70
2023-02-26T08:15:03.852Z,0.90
2023-02-26T08:17:30.333Z,0.70
2023-02-26T08:19:56.859Z,0.80
2023-02-26T08:22:23.866Z,0.60
2023-02-26T08:24:50.879Z,0.77
2023-02-26T08:27:17.563Z,0.75
2023-02-26T08:29:46.313Z,0.80
2023-02-26T08:32:13.734Z,0.52
2023-02-26T08:34:40.401Z,0.85
2023-02-26T08:37:09.350Z,0.55
2023-02-26T08:39:38.419Z,0.65
2023-02-26T08:42:08.607Z,1.02
2023-02-26T08:44:35.234Z,0.68
2023-02-26T08:47:01.799Z,0.70
2023-02-26T08:49:28.339Z,0.68
2023-02-26T08:51:54.855Z,16.58
2023-02-26T08:54:21.399Z,1.15
2023-02-26T08:56:47.958Z,1.27
2023-02-26T08:59:15.167Z,0.73
2023-02-26T09:01:41.752Z,0.57
2023-02-26T09:04:08.406Z,1.45
2023-02-26T09:06:34.916Z,1.80
2023-02-26T09:09:01.450Z,1.13
2023-02-26T09:11:30.751Z,1.02
2023-02-26T09:13:59.067Z,0.90
2023-02-26T09:16:26.249Z,2.30
2023-02-26T09:18:53.094Z,1.05
2023-02-26T09:21:19.780Z,2.20
2023-02-26T09:23:46.265Z,2.05
2023-02-26T09:26:12.854Z,2.05
2023-02-26T09:28:39.567Z,1.10
2023-02-26T09:31:07.405Z,0.85
2023-02-26T09:33:34.183Z,0.80
2023-02-26T09:36:00.772Z,0.82
2023-02-26T09:38:27.403Z,0.80
2023-02-26T09:40:58.958Z,0.98
2023-02-26T09:43:44.085Z,1.67
2023-02-26T09:46:19.742Z,1.20
2023-02-26T09:48:47.272Z,1.58
2023-02-26T09:51:16.882Z,0.93
2023-02-26T09:53:44.544Z,1.42
2023-02-26T09:56:15.686Z,0.80
2023-02-26T09:58:43.570Z,0.50
2023-02-26T10:01:12.912Z,0.80
2023-02-26T10:03:50.985Z,0.90
2023-02-26T10:06:19.458Z,0.95
2023-02-26T10:08:55.298Z,0.52
2023-02-26T10:11:29.416Z,0.60
2023-02-26T10:14:02.279Z,0.68
2023-02-26T10:16:31.676Z,0.80
2023-02-26T10:19:07.045Z,1.70
2023-02-26T10:21:37.592Z,0.60
2023-02-26T10:24:08.324Z,0.75
2023-02-26T10:26:40.710Z,0.80
2023-02-26T10:29:33.296Z,0.80
2023-02-26T10:32:06.107Z,0.70
2023-02-26T10:34:33.078Z,0.60
2023-02-26T10:36:59.611Z,0.60
2023-02-26T10:39:26.153Z,0.73
2023-02-26T10:41:53.591Z,0.75
2023-02-26T10:44:27.971Z,0.70
2023-02-26T10:47:08.030Z,0.93
2023-02-26T10:49:54.580Z,7.63
2023-02-26T10:52:23.513Z,4.75
2023-02-26T10:54:59.270Z,2.95
2023-02-26T10:57:33.186Z,4.88
2023-02-26T11:00:05.429Z,6.45
2023-02-26T11:02:37.197Z,2.70
2023-02-26T11:05:07.858Z,10.60
2023-02-26T11:07:36.959Z,1.55
2023-02-26T11:10:03.989Z,2.95
2023-02-26T11:12:32.380Z,3.50
2023-02-26T11:15:00.953Z,6.18
2023-02-26T11:17:31.363Z,6.22
2023-02-26T11:20:06.116Z,5.40
2023-02-26T11:22:34.018Z,2.85
2023-02-26T11:25:00.826Z,5.13
2023-02-26T11:27:31.794Z,3.35
2023-02-26T11:29:59.327Z,1.98
2023-02-26T11:32:33.672Z,1.40
2023-02-26T11:35:00.323Z,2.40
2023-02-26T11:37:31.490Z,1.27
2023-02-26T11:40:33.544Z,2.90
2023-02-26T11:43:03.852Z,8.57
2023-02-26T11:45:30.526Z,1.30
2023-02-26T11:48:02.481Z,2.65
2023-02-26T11:50:29.720Z,1.42
2023-02-26T11:52:57.366Z,1.70
2023-02-26T11:55:28.948Z,1.70
2023-02-26T11:57:56.170Z,2.63
2023-02-26T12:00:29.874Z,3.45
2023-02-26T12:03:08.347Z,1.15
2023-02-26T12:05:35.823Z,1.25
2023-02-26T12:08:04.713Z,0.98
2023-02-26T12:10:50.510Z,1.35
2023-02-26T12:13:17.126Z,125.28
2023-02-26T12:15:56.786Z,91.07
2023-02-26T12:18:30.471Z,262.60
2023-02-26T12:21:12.530Z,107.40
2023-02-26T12:23:48.426Z,66.60
2023-02-26T12:26:20.034Z,146.38
2023-02-26T12:28:55.488Z,190.40
2023-02-26T12:31:22.122Z,74.60
2023-02-26T12:33:51.896Z,131.68
2023-02-26T12:36:31.678Z,95.65
2023-02-26T12:39:06.831Z,60.63
2023-02-26T12:41:42.765Z,54.60
2023-02-26T12:44:26.798Z,41.05
2023-02-26T12:47:17.285Z,43.20
2023-02-26T12:49:52.839Z,46.78
2023-02-26T12:52:51.757Z,41.58
2023-02-26T12:55:37.946Z,33.67
2023-02-26T12:58:12.508Z,35.97
2023-02-26T13:00:48.177Z,31.92
2023-02-26T13:03:35.768Z,45.20
2023-02-26T13:06:16.486Z,31.83
2023-02-26T13:08:57.401Z,34.55
2023-02-26T13:11:29.794Z,29.92
2023-02-26T13:14:11.500Z,27.35
2023-02-26T13:16:43.386Z,32.97
2023-02-26T13:19:16.160Z,29.10
2023-02-26T13:21:44.689Z,24.15
2023-02-26T13:24:11.196Z,25.55
2023-02-26T13:26:38.385Z,19.65
2023-02-26T13:29:15.209Z,19.67
2023-02-26T13:31:50.950Z,15.20
2023-02-26T13:34:20.788Z,25.88
2023-02-26T13:36:48.008Z,16.27
2023-02-26T13:39:33.445Z,18.13
2023-02-26T13:42:02.944Z,15.73
2023-02-26T13:44:48.171Z,15.82
2023-02-26T13:47:29.055Z,21.48
2023-02-26T13:50:03.233Z,14.27
2023-02-26T13:52:31.168Z,18.48
2023-02-26T13:54:59.519Z,12.65
2023-02-26T13:57:29.227Z,12.35
2023-02-26T14:00:25.173Z,12.90
2023-02-26T14:02:56.211Z,17.00
2023-02-26T14:05:31.218Z,15.30
2023-02-26T14:07:57.805Z,14.02
2023-02-26T14:10:32.907Z,10.27
2023-02-26T14:13:08.432Z,12.90
2023-02-26T14:15:48.374Z,11.20
2023-02-26T14:18:51.021Z,14.00
2023-02-26T14:21:35.682Z,14.48
2023-02-26T14:24:03.485Z,13.20
2023-02-26T14:26:32.927Z,8.15
2023-02-26T14:29:05.696Z,10.98
2023-02-26T14:31:47.490Z,10.48
2023-02-26T14:34:16.095Z,9.57
2023-02-26T14:36:43.045Z,9.80
2023-02-26T14:39:18.113Z,7.78
2023-02-26T14:41:45.236Z,9.40
2023-02-26T14:44:16.145Z,14.05
2023-02-26T14:46:43.750Z,12.43
2023-02-26T14:49:25.278Z,9.60
2023-02-26T14:52:05.578Z,10.10
2023-02-26T14:54:35.131Z,5.80
2023-02-26T14:57:10.677Z,8.90
2023-02-26T15:00:00.650Z,9.48
2023-02-26T15:02:32.473Z,6.38
2023-02-26T15:05:10.442Z,5.53
2023-02-26T15:07:36.935Z,9.20
2023-02-26T15:10:11.175Z,10.20
2023-02-26T15:12:37.982Z,4.78
2023-02-26T15:15:27.170Z,5.68
2023-02-26T15:18:16.792Z,8.80
2023-02-26T15:20:50.472Z,3.90
2023-02-26T15:23:29.123Z,5.85
2023-02-26T15:25:57.270Z,7.47
2023-02-26T15:28:28.614Z,6.05
2023-02-26T15:30:55.530Z,5.75
2023-02-26T15:33:24.172Z,5.25
2023-02-26T15:35:52.062Z,9.95
2023-02-26T15:38:18.794Z,6.18
2023-02-26T15:40:45.384Z,4.15
2023-02-26T15:43:14.985Z,7.25
2023-02-26T15:45:43.533Z,5.75
2023-02-26T15:48:13.583Z,4.95
2023-02-26T15:50:42.193Z,3.50
2023-02-26T15:53:11.185Z,4.63
2023-02-26T15:55:39.322Z,3.58
2023-02-26T15:58:07.236Z,3.63
2023-02-26T16:00:36.091Z,2.63
2023-02-26T16:03:04.686Z,3.83
2023-02-26T16:05:32.379Z,4.57
2023-02-26T16:07:58.990Z,5.18
2023-02-26T16:10:32.302Z,3.13
2023-02-26T16:12:59.444Z,3.83
2023-02-26T16:15:31.358Z,3.72
2023-02-26T16:17:58.836Z,3.03
2023-02-26T16:20:27.365Z,2.25
2023-02-26T16:23:05.132Z,6.70
2023-02-26T16:25:42.179Z,3.60
2023-02-26T16:28:16.592Z,4.18
2023-02-26T16:30:44.309Z,2.42
2023-02-26T16:33:15.348Z,4.20
2023-02-26T16:35:49.556Z,2.65
2023-02-26T16:38:19.195Z,3.75
2023-02-26T16:40:46.102Z,3.10
2023-02-26T16:43:33.522Z,2.50
2023-02-26T16:46:01.124Z,3.63
2023-02-26T16:48:29.613Z,3.78
2023-02-26T16:50:58.895Z,5.30
2023-02-26T16:53:29.194Z,3.22
2023-02-26T16:55:56.563Z,7.82
2023-02-26T16:58:23.712Z,2.72
2023-02-26T17:00:59.156Z,1.58
2023-02-26T17:03:27.027Z,2.72
2023-02-26T17:05:55.337Z,4.95
2023-02-26T17:08:23.884Z,4.18
2023-02-26T17:10:54.104Z,3.40
2023-02-26T17:13:23.740Z,2.17
2023-02-26T17:15:51.228Z,2.03
2023-02-26T17:18:18.001Z,3.85
2023-02-26T17:20:44.809Z,3.10
2023-02-26T17:23:13.910Z,2.88
2023-02-26T17:25:44.540Z,1.70
2023-02-26T17:28:14.869Z,3.10
2023-02-26T17:30:42.493Z,2.55
2023-02-26T17:33:12.620Z,3.53
2023-02-26T17:35:39.361Z,3.20
2023-02-26T17:38:06.301Z,5.75
2023-02-26T17:40:39.484Z,2.70
2023-02-26T17:43:06.869Z,2.15
2023-02-26T17:45:34.108Z,16.17
2023-02-26T17:48:01.029Z,28.70
2023-02-26T17:50:38.282Z,4.93
2023-02-26T17:53:05.323Z,1.67
2023-02-26T17:55:32.624Z,3.05
2023-02-26T17:57:59.586Z,5.47
2023-02-26T18:00:26.227Z,6.70
2023-02-26T18:02:52.848Z,3.70
2023-02-26T18:05:19.997Z,8.25
2023-02-26T18:07:47.865Z,4.25
2023-02-26T18:10:24.869Z,4.45
2023-02-26T18:12:51.655Z,2.08
2023-02-26T18:15:18.162Z,3.08
2023-02-26T18:17:44.813Z,5.90
2023-02-26T18:20:17.061Z,2.55
2023-02-26T18:22:43.762Z,3.42
2023-02-26T18:25:12.876Z,6.85
2023-02-26T18:27:39.503Z,3.70
2023-02-26T18:30:06.651Z,2.13
2023-02-26T18:32:33.251Z,2.92
2023-02-26T18:34:59.972Z,2.65
2023-02-26T18:37:27.180Z,1.65
2023-02-26T18:39:53.752Z,1.52
2023-02-26T18:42:24.266Z,1.42
2023-02-26T18:44:51.208Z,1.88
2023-02-26T18:47:19.245Z,1.33
2023-02-26T18:49:46.387Z,0.88
2023-02-26T18:52:12.992Z,2.92
2023-02-26T18:54:39.611Z,1.08
2023-02-26T18:57:06.811Z,1.20
2023-02-26T18:59:36.861Z,1.10
2023-02-26T19:02:04.152Z,1.25
2023-02-26T19:04:31.092Z,5.88
2023-02-26T19:06:58.205Z,1.95
2023-02-26T19:09:24.695Z,1.48
2023-02-26T19:11:51.414Z,2.03
2023-02-26T19:14:18.472Z,2.60
2023-02-26T19:16:44.971Z,2.53
2023-02-26T19:19:12.826Z,1.27
2023-02-26T19:21:40.413Z,3.30
2023-02-26T19:24:08.079Z,1.95
2023-02-26T19:26:35.041Z,1.20
2023-02-26T19:29:01.686Z,1.10
2023-02-26T19:31:28.950Z,3.08
2023-02-26T19:33:55.839Z,1.00
2023-02-26T19:36:22.319Z,1.13
2023-02-26T19:38:51.957Z,1.42
2023-02-26T19:41:19.888Z,1.25
2023-02-26T19:43:47.280Z,1.83
2023-02-26T19:46:14.233Z,1.63
2023-02-26T19:48:41.543Z,0.70
2023-02-26T19:51:08.463Z,1.00
2023-02-26T19:53:35.703Z,1.10
2023-02-26T19:56:03.403Z,1.80
2023-02-26T19:58:33.199Z,0.80
2023-02-26T20:01:00.654Z,1.33
2023-02-26T20:03:27.794Z,1.40
2023-02-26T20:05:55.102Z,0.85
2023-02-26T20:08:22.781Z,1.13
2023-02-26T20:10:52.918Z,1.95
2023-02-26T20:13:20.024Z,2.55
2023-02-26T20:15:48.496Z,0.93
2023-02-26T20:18:16.111Z,1.50
2023-02-26T20:20:43.046Z,1.40
2023-02-26T20:23:09.613Z,1.52
2023-02-26T20:25:36.346Z,2.85
2023-02-26T20:28:02.933Z,0.90
2023-02-26T20:30:29.686Z,1.33
2023-02-26T20:32:56.399Z,0.93
2023-02-26T20:35:23.024Z,0.80
2023-02-26T20:37:49.562Z,1.10
2023-02-26T20:40:16.136Z,2.10
2023-02-26T20:42:42.713Z,0.73
2023-02-26T20:45:09.432Z,0.85
2023-02-26T20:47:35.973Z,1.02
2023-02-26T20:50:02.948Z,1.27
2023-02-26T20:52:29.542Z,1.65
2023-02-26T20:54:56.272Z,1.95
2023-02-26T20:57:22.956Z,2.45
2023-02-26T20:59:49.514Z,1.58
2023-02-26T21:02:20.793Z,0.80
2023-02-26T21:04:47.920Z,2.38
2023-02-26T21:07:17.743Z,1.48
2023-02-26T21:09:47.934Z,1.83
2023-02-26T21:12:15.149Z,1.20
2023-02-26T21:14:41.901Z,3.35
2023-02-26T21:17:08.411Z,1.75
2023-02-26T21:19:35.023Z,0.80
2023-02-26T21:22:01.883Z,2.22
2023-02-26T21:24:28.773Z,1.30
2023-02-26T21:26:55.553Z,2.22
2023-02-26T21:29:22.925Z,3.63
2023-02-26T21:31:53.498Z,1.02
2023-02-26T21:34:33.190Z,2.70
2023-02-26T21:37:01.044Z,2.45
2023-02-26T21:39:27.972Z,1.55
2023-02-26T21:41:54.601Z,1.45
2023-02-26T21:44:21.246Z,2.90
2023-02-26T21:46:47.712Z,2.22
2023-02-26T21:49:14.274Z,1.13
2023-02-26T21:51:40.812Z,0.85
2023-02-26T21:54:07.311Z,1.40
2023-02-26T21:56:33.904Z,1.13
2023-02-26T21:59:00.478Z,2.28
2023-02-26T22:01:27.418Z,2.30
2023-02-26T22:03:54.119Z,1.00
2023-02-26T22:06:20.690Z,3.28
2023-02-26T22:08:47.320Z,2.05
2023-02-26T22:11:13.889Z,0.90
2023-02-26T22:13:40.488Z,1.05
2023-02-26T22:16:07.243Z,1.35
2023-02-26T22:18:33.769Z,0.85
2023-02-26T22:21:00.359Z,2.38
2023-02-26T22:23:26.888Z,2.83
2023-02-26T22:25:53.378Z,1.02
2023-02-26T22:28:21.229Z,1.33
2023-02-26T22:30:47.801Z,1.52
2023-02-26T22:33:14.459Z,2.88
2023-02-26T22:35:41.425Z,1.23
2023-02-26T22:38:07.950Z,1.20
2023-02-26T22:40:34.476Z,1.50
2023-02-26T22:43:01.010Z,1.65
2023-02-26T22:45:27.586Z,2.20
2023-02-26T22:47:54.194Z,4.20
2023-02-26T22:50:20.815Z,1.70
2023-02-26T22:52:47.432Z,1.02
2023-02-26T22:55:14.086Z,3.10
2023-02-26T22:57:40.695Z,1.42
2023-02-26T23:00:09.996Z,2.08
2023-02-26T23:02:37.826Z,1.10
2023-02-26T23:05:06.717Z,1.17
2023-02-26T23:07:33.195Z,1.10
2023-02-26T23:09:59.718Z,2.22
2023-02-26T23:12:26.277Z,3.30
2023-02-26T23:14:52.941Z,1.35
2023-02-26T23:17:19.369Z,1.27
2023-02-26T23:19:45.898Z,1.58
2023-02-26T23:22:12.389Z,1.73
2023-02-26T23:24:38.877Z,2.47
2023-02-26T23:27:05.396Z,1.17
2023-02-26T23:29:31.869Z,1.38
2023-02-26T23:31:58.532Z,1.80
2023-02-26T23:34:25.409Z,1.30
2023-02-26T23:36:51.877Z,1.05
2023-02-26T23:39:18.446Z,1.50
2023-02-26T23:41:45.015Z,1.75
2023-02-26T23:44:11.517Z,1.35
2023-02-26T23:46:38.245Z,1.98
2023-02-26T23:49:04.950Z,3.72
2023-02-26T23:51:31.728Z,1.02
2023-02-26T23:53:59.352Z,1.13
2023-02-26T23:56:25.953Z,1.55
2023-02-26T23:58:52.574Z,1.27
